Time;durP1;ratioP1;P1;durP2;ratioP2;P2;SDS_P1;SDS_P2;PMS_P1;PMS_P2;Temp;Humidity;BMP_temperature;BMP_pressure;BME280_temperature;BME280_humidity;BME280_pressure;Samples;Min_cycle;Max_cycle;Signal;HPM_P1;HPM_P2
2021/12/18 00:01:32;;;;;;;16.20;8.02;;;1.90;99.90;;;;;;5038119;28;20022;-80
2021/12/18 00:03:58;;;;;;;19.42;9.55;;;1.80;99.90;;;;;;5038275;28;20044;-79
2021/12/18 00:06:27;;;;;;;16.50;9.00;;;1.80;99.90;;;;;;5038732;28;20381;-79
2021/12/18 00:08:54;;;;;;;13.07;7.10;;;1.80;99.90;;;;;;5038928;28;20025;-79
2021/12/18 00:11:20;;;;;;;16.00;7.85;;;1.80;99.90;;;;;;5038472;28;20017;-79
2021/12/18 00:13:46;;;;;;;12.80;7.70;;;1.80;99.90;;;;;;5039524;28;20033;-79
2021/12/18 00:16:12;;;;;;;12.13;7.15;;;1.40;99.90;;;;;;5040765;28;20022;-79
2021/12/18 00:18:38;;;;;;;12.80;6.90;;;1.70;99.90;;;;;;5039794;28;20029;-79
2021/12/18 00:21:05;;;;;;;13.23;7.82;;;1.80;99.90;;;;;;5040262;28;20385;-79
2021/12/18 00:23:31;;;;;;;16.08;7.65;;;1.70;99.90;;;;;;5038728;28;20503;-79
2021/12/18 00:25:56;;;;;;;15.85;8.75;;;1.70;99.90;;;;;;5037432;28;20374;-79
2021/12/18 00:28:23;;;;;;;15.23;8.27;;;1.70;99.90;;;;;;5038715;28;20454;-79
2021/12/18 00:30:49;;;;;;;18.05;8.90;;;1.70;99.90;;;;;;5038266;28;20073;-79
2021/12/18 00:33:14;;;;;;;15.68;8.50;;;1.70;99.90;;;;;;5038156;28;20611;-80
2021/12/18 00:35:40;;;;;;;17.83;10.07;;;1.70;99.90;;;;;;5038564;28;20028;-79
2021/12/18 00:38:07;;;;;;;15.20;8.32;;;1.70;99.90;;;;;;5038600;28;20025;-79
2021/12/18 00:40:46;;;;;;;25.48;11.75;;;1.70;99.90;;;;;;5037645;28;20024;-80
2021/12/18 00:43:25;;;;;;;19.20;9.73;;;1.70;99.90;;;;;;5038320;28;20025;-79
2021/12/18 00:45:52;;;;;;;16.83;8.63;;;1.70;99.90;;;;;;5038883;28;20104;-79
2021/12/18 00:48:18;;;;;;;17.65;9.82;;;1.70;99.90;;;;;;5038649;28;20037;-78
2021/12/18 00:50:44;;;;;;;15.88;8.88;;;1.70;99.90;;;;;;5038344;28;20021;-79
2021/12/18 00:53:10;;;;;;;14.80;8.57;;;1.70;99.90;;;;;;5038032;28;20463;-79
2021/12/18 00:55:37;;;;;;;17.13;8.75;;;1.70;99.90;;;;;;5038274;28;20017;-78
2021/12/18 00:58:03;;;;;;;17.98;9.43;;;1.70;99.90;;;;;;5039385;28;20025;-79
2021/12/18 01:00:30;;;;;;;15.00;8.25;;;1.60;99.90;;;;;;5039312;28;20499;-78
2021/12/18 01:03:00;;;;;;;16.60;8.55;;;1.60;99.90;;;;;;5042698;28;20021;-78
2021/12/18 01:05:28;;;;;;;14.23;8.45;;;1.50;99.90;;;;;;5042038;28;20036;-79
2021/12/18 01:07:58;;;;;;;19.60;8.70;;;1.50;99.90;;;;;;5042366;28;20310;-79
2021/12/18 01:10:57;;;;;;;16.95;7.88;;;2.10;99.90;;;;;;5042058;28;20013;-79
2021/12/18 01:13:28;;;;;;;19.63;9.05;;;1.50;99.90;;;;;;5042073;28;20352;-77
2021/12/18 01:16:03;;;;;;;14.15;8.48;;;1.50;99.90;;;;;;5041776;28;20017;-79
2021/12/18 01:23:59;;;;;;;18.08;8.57;;;1.50;99.90;;;;;;4979053;28;20375;-78
2021/12/18 01:26:25;;;;;;;15.50;8.35;;;1.50;99.90;;;;;;4978658;28;20444;-77
2021/12/18 01:28:51;;;;;;;15.85;8.38;;;1.40;99.90;;;;;;4979174;28;20038;-77
2021/12/18 01:31:17;;;;;;;13.82;8.68;;;1.40;99.90;;;;;;4979145;28;20027;-76
2021/12/18 01:33:43;;;;;;;18.05;7.85;;;1.40;99.90;;;;;;4978661;28;20054;-77
2021/12/18 01:36:09;;;;;;;19.25;9.60;;;1.40;99.90;;;;;;4978378;28;20030;-77
2021/12/18 01:38:35;;;;;;;14.63;8.60;;;1.40;99.90;;;;;;4978501;28;20027;-77
2021/12/18 01:41:02;;;;;;;14.10;7.88;;;1.40;99.90;;;;;;4978667;28;20030;-78
2021/12/18 01:54:30;;;;;;;20.00;8.65;;;1.40;99.90;;;;;;4978883;28;20052;-78
2021/12/18 01:56:56;;;;;;;19.85;8.57;;;1.40;99.90;;;;;;4978466;28;20089;-76
2021/12/18 01:59:46;;;;;;;13.77;7.85;;;1.40;99.90;;;;;;4978397;28;20200;-79
2021/12/18 02:02:12;;;;;;;12.15;6.63;;;1.40;99.90;;;;;;5035679;28;20061;-77
2021/12/18 02:04:38;;;;;;;12.77;6.70;;;1.40;99.90;;;;;;5040378;28;20029;-77
2021/12/18 02:07:04;;;;;;;17.42;7.60;;;1.30;99.90;;;;;;5040240;28;20024;-79
2021/12/18 02:09:50;;;;;;;11.45;6.10;;;1.30;99.90;;;;;;5039739;28;20024;-77
2021/12/18 02:12:18;;;;;;;9.75;5.95;;;1.30;99.90;;;;;;5039537;28;20170;-77
2021/12/18 02:20:39;;;;;;;13.47;6.57;;;1.30;99.90;;;;;;5039767;28;20098;-78
2021/12/18 02:23:06;;;;;;;11.73;6.38;;;1.30;99.90;;;;;;5039308;28;20029;-78
2021/12/18 02:25:35;;;;;;;12.65;7.05;;;1.30;99.90;;;;;;5039425;28;20028;-76
2021/12/18 02:28:02;;;;;;;12.23;6.75;;;1.30;99.90;;;;;;5039112;28;20040;-76
2021/12/18 02:30:28;;;;;;;10.65;5.72;;;1.30;99.90;;;;;;5037825;28;20048;-77
2021/12/18 02:32:55;;;;;;;11.85;6.22;;;1.70;99.90;;;;;;5038955;28;20040;-78
2021/12/18 02:35:46;;;;;;;9.52;5.88;;;1.30;99.90;;;;;;5038640;28;20132;-78
2021/12/18 02:38:20;;;;;;;14.25;6.15;;;1.20;99.90;;;;;;5039066;28;20461;-76
2021/12/18 02:43:33;;;;;;;13.25;7.75;;;1.20;99.90;;;;;;5039295;28;20289;-76
2021/12/18 02:45:59;;;;;;;13.30;7.00;;;1.20;99.90;;;;;;5039128;28;20032;-76
2021/12/18 02:48:29;;;;;;;11.93;6.45;;;1.20;99.90;;;;;;5039751;28;20021;-76
2021/12/18 02:50:58;;;;;;;11.98;6.65;;;1.20;99.90;;;;;;5040232;28;20114;-78
2021/12/18 02:53:26;;;;;;;15.98;6.82;;;1.20;99.90;;;;;;5040510;28;20385;-78
2021/12/18 02:55:57;;;;;;;13.75;7.57;;;1.20;99.90;;;;;;5039823;28;20033;-77
2021/12/18 02:58:23;;;;;;;13.98;7.60;;;1.10;99.90;;;;;;5039515;28;20025;-76
2021/12/18 03:00:49;;;;;;;18.40;9.55;;;1.10;99.90;;;;;;5039884;28;20225;-76
2021/12/18 03:03:16;;;;;;;12.77;7.97;;;1.10;99.90;;;;;;5039627;28;20027;-79
2021/12/18 03:05:54;;;;;;;16.88;7.90;;;1.00;99.90;;;;;;5043402;28;20071;-77
2021/12/18 03:08:34;;;;;;;12.00;7.68;;;1.00;99.90;;;;;;5046931;28;20021;-77
2021/12/18 03:24:40;;;;;;;11.30;7.30;;;1.20;99.90;;;;;;5039566;28;20033;-77
2021/12/18 03:27:07;;;;;;;12.35;7.20;;;1.30;99.90;;;;;;5039131;28;20305;-77
2021/12/18 03:29:33;;;;;;;10.32;6.75;;;1.40;99.90;;;;;;5039803;28;20127;-77
2021/12/18 03:31:59;;;;;;;10.73;7.00;;;1.40;99.90;;;;;;5039541;28;20109;-79
2021/12/18 03:34:25;;;;;;;11.35;6.80;;;1.50;99.90;;;;;;5040666;28;20133;-78
2021/12/18 03:36:52;;;;;;;11.35;7.03;;;1.50;99.90;;;;;;5043588;28;20260;-77
2021/12/18 03:39:18;;;;;;;10.05;6.35;;;1.50;99.90;;;;;;5043520;28;20021;-76
2021/12/18 03:41:47;;;;;;;11.65;6.65;;;1.60;99.90;;;;;;5044109;28;20017;-76
2021/12/18 03:44:13;;;;;;;10.82;6.40;;;1.60;99.90;;;;;;5041480;28;20025;-77
2021/12/18 03:46:39;;;;;;;11.45;6.82;;;1.60;99.90;;;;;;5039688;28;20033;-77
2021/12/18 03:49:04;;;;;;;11.85;6.85;;;1.60;99.90;;;;;;5038989;28;20210;-77
2021/12/18 03:51:31;;;;;;;12.48;6.80;;;1.70;99.90;;;;;;5038176;28;20100;-77
2021/12/18 03:53:56;;;;;;;13.05;7.30;;;1.70;99.90;;;;;;5038497;28;20036;-77
2021/12/18 03:56:22;;;;;;;9.23;6.30;;;1.70;99.90;;;;;;5038692;28;20037;-77
2021/12/18 03:58:48;;;;;;;12.43;6.45;;;1.70;99.90;;;;;;5038106;28;20037;-77
2021/12/18 04:01:14;;;;;;;10.68;6.32;;;1.70;99.90;;;;;;5037212;28;20021;-78
2021/12/18 04:03:40;;;;;;;11.60;6.63;;;1.70;99.90;;;;;;5038641;28;20483;-76
2021/12/18 04:06:06;;;;;;;12.98;7.43;;;1.80;99.90;;;;;;5038384;28;20029;-77
2021/12/18 04:08:31;;;;;;;11.18;6.10;;;1.80;99.90;;;;;;5038047;28;20021;-77
2021/12/18 04:10:57;;;;;;;10.98;6.95;;;1.80;99.90;;;;;;5038365;28;20028;-76
2021/12/18 04:13:23;;;;;;;11.30;6.78;;;1.80;99.90;;;;;;5037791;28;20434;-77
2021/12/18 04:15:49;;;;;;;12.18;7.07;;;1.80;99.90;;;;;;5038364;28;20086;-78
2021/12/18 04:18:15;;;;;;;11.35;7.57;;;1.80;99.90;;;;;;5038244;28;20099;-78
2021/12/18 04:20:41;;;;;;;13.70;7.47;;;1.80;99.90;;;;;;5038268;28;20254;-76
2021/12/18 04:23:07;;;;;;;13.65;7.45;;;1.80;99.90;;;;;;5037963;28;20033;-77
2021/12/18 04:25:33;;;;;;;13.73;7.55;;;1.80;99.90;;;;;;5038328;28;20058;-79
2021/12/18 04:27:58;;;;;;;21.33;9.88;;;1.80;99.90;;;;;;5038213;28;20036;-78
2021/12/18 04:30:24;;;;;;;15.23;8.45;;;1.80;99.90;;;;;;5038287;28;20085;-78
2021/12/18 04:32:51;;;;;;;15.05;8.07;;;1.80;99.90;;;;;;5036913;28;20036;-78
2021/12/18 04:35:17;;;;;;;12.43;6.30;;;1.80;99.90;;;;;;5040109;28;20233;-76
2021/12/18 04:37:43;;;;;;;11.98;5.97;;;1.80;99.70;;;;;;5042260;28;20028;-78
2021/12/18 04:40:09;;;;;;;9.07;4.93;;;1.80;99.40;;;;;;5042249;28;20052;-77
2021/12/18 04:42:35;;;;;;;6.85;3.88;;;1.80;98.90;;;;;;5042505;28;20021;-77
2021/12/18 04:45:02;;;;;;;8.38;4.10;;;1.80;96.90;;;;;;5041941;28;20331;-77
2021/12/18 04:47:28;;;;;;;5.90;3.70;;;1.80;97.10;;;;;;5041913;28;20116;-77
2021/12/18 04:49:55;;;;;;;5.53;3.22;;;1.80;96.00;;;;;;5041476;28;20663;-77
2021/12/18 04:52:22;;;;;;;6.47;3.78;;;1.80;96.00;;;;;;5041341;28;20130;-78
2021/12/18 04:54:48;;;;;;;5.78;3.83;;;1.80;97.10;;;;;;5041192;28;20222;-77
2021/12/18 04:57:13;;;;;;;8.35;4.35;;;1.80;95.20;;;;;;5041342;28;20021;-78
2021/12/18 04:59:43;;;;;;;6.45;3.78;;;1.80;95.20;;;;;;5041446;28;20542;-79
2021/12/18 05:02:11;;;;;;;7.65;4.05;;;1.80;95.20;;;;;;5041004;28;20067;-78
2021/12/18 05:04:37;;;;;;;5.95;3.70;;;1.80;95.40;;;;;;5041323;28;20017;-79
2021/12/18 05:07:04;;;;;;;4.97;3.42;;;2.30;95.50;;;;;;5041670;28;20009;-77
2021/12/18 05:09:29;;;;;;;8.00;3.60;;;1.70;95.50;;;;;;5041623;28;20229;-79
2021/12/18 05:11:55;;;;;;;8.10;4.00;;;1.70;94.80;;;;;;5041694;28;20025;-77
2021/12/18 05:14:22;;;;;;;8.98;4.53;;;1.70;95.20;;;;;;5040012;28;20086;-79
2021/12/18 05:16:48;;;;;;;7.75;5.40;;;1.70;95.40;;;;;;5041377;28;20020;-77
2021/12/18 05:19:14;;;;;;;10.52;5.03;;;1.80;96.30;;;;;;5041613;28;20021;-77
2021/12/18 05:21:40;;;;;;;7.97;4.90;;;1.70;96.60;;;;;;5041142;28;20025;-77
2021/12/18 05:24:07;;;;;;;7.53;5.07;;;1.70;97.10;;;;;;5040631;28;20108;-77
2021/12/18 05:26:32;;;;;;;7.30;4.90;;;0.30;97.10;;;;;;5040752;28;20028;-78
2021/12/18 05:28:58;;;;;;;6.85;4.32;;;1.80;97.60;;;;;;5041224;28;20029;-76
2021/12/18 05:31:24;;;;;;;5.22;3.17;;;1.70;97.70;;;;;;5041347;28;20021;-77
2021/12/18 05:33:54;;;;;;;8.38;4.60;;;1.60;97.60;;;;;;5040680;28;20589;-76
2021/12/18 05:39:09;;;;;;;10.90;5.78;;;2.40;99.90;;;;;;5040854;28;20017;-77
2021/12/18 05:41:36;;;;;;;11.65;6.78;;;1.40;99.90;;;;;;5040506;28;20025;-79
2021/12/18 05:44:05;;;;;;;12.20;7.30;;;1.40;99.90;;;;;;5040622;28;20104;-77
2021/12/18 05:46:31;;;;;;;15.77;7.00;;;1.50;99.90;;;;;;5040351;28;20025;-78
2021/12/18 05:48:57;;;;;;;11.90;6.95;;;1.50;99.90;;;;;;5040680;28;20530;-78
2021/12/18 05:51:23;;;;;;;11.25;7.22;;;1.50;99.90;;;;;;5040507;28;20029;-77
2021/12/18 05:53:48;;;;;;;13.90;8.18;;;1.50;99.90;;;;;;5040207;28;20387;-77
2021/12/18 05:56:14;;;;;;;15.30;7.93;;;1.60;99.90;;;;;;5040666;28;20652;-78
2021/12/18 05:58:41;;;;;;;9.70;6.18;;;1.60;99.90;;;;;;5040308;28;20017;-77
2021/12/18 06:01:07;;;;;;;20.20;10.48;;;1.60;99.00;;;;;;5040567;28;20017;-78
2021/12/18 06:03:33;;;;;;;14.35;7.75;;;1.50;99.90;;;;;;5040198;28;20088;-78
2021/12/18 06:05:59;;;;;;;13.85;7.32;;;1.40;99.90;;;;;;5039210;28;20108;-78
2021/12/18 06:08:26;;;;;;;12.60;7.32;;;1.40;99.90;;;;;;5039462;28;20103;-77
2021/12/18 06:10:52;;;;;;;13.38;7.25;;;1.40;99.90;;;;;;5040953;28;20071;-79
2021/12/18 06:13:18;;;;;;;14.45;8.18;;;1.40;99.90;;;;;;5040706;28;20038;-80
2021/12/18 06:15:44;;;;;;;15.00;8.02;;;1.30;99.90;;;;;;5041267;28;20494;-77
2021/12/18 06:18:10;;;;;;;14.27;8.07;;;1.30;99.90;;;;;;5041421;28;20028;-77
2021/12/18 06:20:35;;;;;;;17.48;8.05;;;1.30;99.90;;;;;;5042737;28;20317;-77
2021/12/18 06:23:01;;;;;;;16.58;9.05;;;1.30;99.90;;;;;;5042593;28;20496;-77
2021/12/18 06:25:27;;;;;;;13.05;7.90;;;1.40;99.90;;;;;;5042697;28;20021;-77
2021/12/18 06:27:53;;;;;;;14.80;8.93;;;1.40;99.90;;;;;;5045484;28;20037;-78
2021/12/18 06:30:19;;;;;;;17.95;9.63;;;1.40;99.90;;;;;;5048944;28;20306;-77
2021/12/18 06:32:46;;;;;;;13.35;8.43;;;1.50;99.90;;;;;;5048313;28;20036;-77
2021/12/18 06:35:12;;;;;;;15.88;8.05;;;1.60;99.90;;;;;;5049010;28;20021;-78
2021/12/18 06:37:38;;;;;;;14.55;8.80;;;1.50;99.90;;;;;;5042955;28;20029;-78
2021/12/18 06:40:04;;;;;;;15.65;8.75;;;0.80;99.90;;;;;;5040660;28;20320;-77
2021/12/18 06:42:30;;;;;;;14.73;8.35;;;1.50;99.90;;;;;;5040709;28;20020;-78
2021/12/18 06:44:56;;;;;;;15.68;8.40;;;1.60;99.90;;;;;;5040945;28;20507;-78
2021/12/18 06:47:22;;;;;;;16.15;11.18;;;1.60;99.90;;;;;;5039505;28;20108;-77
2021/12/18 06:49:48;;;;;;;16.13;12.15;;;1.60;99.90;;;;;;5041013;28;20021;-79
2021/12/18 06:52:13;;;;;;;15.63;10.27;;;1.60;99.90;;;;;;5040926;28;20068;-78
2021/12/18 06:54:39;;;;;;;18.10;10.70;;;1.70;99.90;;;;;;5041883;28;20017;-77
2021/12/18 06:57:05;;;;;;;19.35;9.70;;;1.60;99.90;;;;;;5044846;28;20162;-78
2021/12/18 06:59:31;;;;;;;15.00;9.20;;;1.70;99.90;;;;;;5046488;28;20082;-78
2021/12/18 07:01:57;;;;;;;18.60;10.02;;;1.70;99.90;;;;;;5046318;28;20329;-78
2021/12/18 07:04:24;;;;;;;18.20;10.27;;;1.70;99.90;;;;;;5044622;28;20392;-78
2021/12/18 07:06:52;;;;;;;20.50;11.43;;;1.90;99.90;;;;;;5041203;28;20107;-76
2021/12/18 07:09:18;;;;;;;22.98;12.55;;;1.80;99.90;;;;;;5040664;28;20087;-77
2021/12/18 07:11:44;;;;;;;25.55;13.27;;;1.80;99.90;;;;;;5040546;28;20317;-77
2021/12/18 07:14:12;;;;;;;46.53;23.33;;;0.40;99.90;;;;;;5040339;28;20585;-78
2021/12/18 07:16:38;;;;;;;35.95;18.95;;;1.90;99.90;;;;;;5038736;28;20474;-77
2021/12/18 07:19:04;;;;;;;26.58;14.75;;;1.90;99.90;;;;;;5040470;28;20565;-78
2021/12/18 07:21:30;;;;;;;30.58;15.05;;;1.90;99.90;;;;;;5039853;28;20352;-78
2021/12/18 07:23:56;;;;;;;26.15;14.70;;;1.80;99.90;;;;;;5038260;28;20131;-77
2021/12/18 07:26:22;;;;;;;24.17;12.60;;;3.60;99.90;;;;;;5039811;28;20409;-77
2021/12/18 07:28:48;;;;;;;18.77;10.88;;;1.80;99.90;;;;;;5039759;28;20024;-77
2021/12/18 07:31:14;;;;;;;18.20;10.35;;;3.40;99.90;;;;;;5041288;28;20128;-77
2021/12/18 07:33:42;;;;;;;17.08;10.40;;;1.90;99.90;;;;;;5041843;28;20089;-76
2021/12/18 07:36:08;;;;;;;19.73;11.40;;;1.90;99.80;;;;;;5039676;28;20454;-76
2021/12/18 07:38:34;;;;;;;17.35;10.40;;;2.00;99.80;;;;;;5040172;28;20025;-76
2021/12/18 07:41:02;;;;;;;16.27;9.43;;;2.00;99.60;;;;;;5040306;28;20664;-76
2021/12/18 07:43:28;;;;;;;14.38;8.38;;;2.00;99.10;;;;;;5040900;28;20221;-78
2021/12/18 07:45:53;;;;;;;16.15;9.10;;;2.00;98.90;;;;;;5040968;28;20260;-77
2021/12/18 07:48:19;;;;;;;19.88;10.20;;;2.10;98.90;;;;;;5040626;28;20663;-76
2021/12/18 07:50:45;;;;;;;18.48;10.43;;;2.10;99.10;;;;;;5041348;28;20233;-77
2021/12/18 07:53:11;;;;;;;19.73;10.65;;;2.10;99.30;;;;;;5040997;28;20486;-78
2021/12/18 07:55:38;;;;;;;19.23;11.80;;;2.10;99.50;;;;;;5041395;28;20644;-78
2021/12/18 07:58:04;;;;;;;19.80;10.93;;;2.20;99.50;;;;;;5041955;28;20541;-78
2021/12/18 08:00:30;;;;;;;23.58;11.55;;;2.10;99.40;;;;;;5047507;28;20256;-77
2021/12/18 08:02:56;;;;;;;16.20;9.70;;;2.20;99.40;;;;;;5044562;28;20260;-77
2021/12/18 08:05:24;;;;;;;17.58;9.70;;;2.30;99.30;;;;;;5046211;28;20063;-76
2021/12/18 08:07:50;;;;;;;16.73;9.50;;;3.70;99.50;;;;;;5046809;28;20052;-78
2021/12/18 08:10:16;;;;;;;21.05;11.88;;;2.30;99.20;;;;;;5048009;28;20468;-78
2021/12/18 08:12:43;;;;;;;22.98;13.20;;;2.40;99.40;;;;;;5048973;28;20493;-79
2021/12/18 08:15:12;;;;;;;20.88;12.50;;;2.50;99.40;;;;;;5047522;28;20093;-76
2021/12/18 08:17:38;;;;;;;23.55;12.85;;;2.50;99.20;;;;;;5045302;28;20052;-79
2021/12/18 08:20:06;;;;;;;27.30;15.27;;;2.50;99.20;;;;;;5045154;28;20025;-79
2021/12/18 08:22:35;;;;;;;21.33;13.75;;;2.60;99.30;;;;;;5044319;28;20025;-77
2021/12/18 08:25:02;;;;;;;20.58;12.95;;;2.60;98.90;;;;;;5044930;28;20553;-76
2021/12/18 08:27:29;;;;;;;24.60;12.35;;;2.70;99.00;;;;;;5048836;28;20029;-77
2021/12/18 08:29:55;;;;;;;31.80;17.50;;;2.70;98.40;;;;;;5046813;28;20089;-76
2021/12/18 08:32:22;;;;;;;36.70;18.92;;;2.70;98.30;;;;;;5046178;28;20113;-81
2021/12/18 08:34:51;;;;;;;28.80;16.42;;;2.70;98.40;;;;;;5045309;28;20542;-77
2021/12/18 08:37:20;;;;;;;33.50;17.52;;;2.70;98.40;;;;;;5045659;28;20013;-79
2021/12/18 08:39:47;;;;;;;34.28;17.55;;;1.30;98.30;;;;;;5045917;28;20013;-79
2021/12/18 08:42:13;;;;;;;26.00;15.45;;;2.30;98.90;;;;;;5046948;28;20450;-78
2021/12/18 08:44:39;;;;;;;25.80;15.05;;;2.30;99.20;;;;;;5049435;28;20025;-78
2021/12/18 08:47:05;;;;;;;23.73;14.75;;;2.30;99.20;;;;;;5046534;28;20222;-80
2021/12/18 08:49:31;;;;;;;16.85;10.52;;;2.40;99.10;;;;;;5047041;28;20035;-79
2021/12/18 08:52:42;;;;;;;17.65;10.13;;;2.30;98.20;;;;;;5046857;28;20101;-76
2021/12/18 08:55:08;;;;;;;24.27;13.02;;;2.20;98.40;;;;;;5047451;28;20431;-77
2021/12/18 08:57:34;;;;;;;29.77;14.55;;;2.40;98.60;;;;;;5050702;28;20075;-80
2021/12/18 09:00:04;;;;;;;22.92;13.00;;;2.40;98.90;;;;;;5051847;28;20029;-82
2021/12/18 09:02:30;;;;;;;30.23;14.73;;;2.50;98.60;;;;;;5053249;28;20596;-76
2021/12/18 09:04:56;;;;;;;27.40;15.10;;;2.60;98.30;;;;;;5057540;28;20017;-77
2021/12/18 09:07:32;;;;;;;28.50;15.60;;;2.70;98.20;;;;;;5057226;28;20021;-79
2021/12/18 09:10:00;;;;;;;28.83;16.33;;;2.80;98.10;;;;;;5048788;28;20016;-76
2021/12/18 09:12:31;;;;;;;24.13;14.30;;;2.80;97.70;;;;;;5057503;28;20538;-82
2021/12/18 09:14:59;;;;;;;13.35;7.65;;;2.70;97.00;;;;;;5053990;28;20056;-75
2021/12/18 09:17:25;;;;;;;13.07;7.78;;;3.00;93.30;;;;;;5047421;28;20021;-76
2021/12/18 09:19:51;;;;;;;10.35;5.50;;;2.90;92.70;;;;;;5046110;28;20017;-80
2021/12/18 09:22:18;;;;;;;7.88;4.47;;;2.90;92.20;;;;;;5050488;28;20100;-76
2021/12/18 09:24:46;;;;;;;10.85;5.10;;;2.80;90.90;;;;;;5050701;28;20029;-79
2021/12/18 09:27:12;;;;;;;13.43;7.07;;;3.10;92.10;;;;;;5048327;28;20067;-79
2021/12/18 09:29:38;;;;;;;11.45;5.97;;;2.90;92.70;;;;;;5049898;28;20021;-77
2021/12/18 09:32:04;;;;;;;15.13;7.50;;;2.90;92.70;;;;;;5047330;28;20074;-79
2021/12/18 09:34:31;;;;;;;16.25;8.82;;;2.90;93.10;;;;;;5050992;28;20033;-82
2021/12/18 09:36:57;;;;;;;18.77;8.93;;;3.00;93.90;;;;;;5052274;28;20071;-78
2021/12/18 09:39:23;;;;;;;13.13;7.53;;;3.00;92.70;;;;;;5050360;28;20037;-79
2021/12/18 09:41:51;;;;;;;13.70;8.00;;;3.00;92.50;;;;;;5049971;28;20013;-79
2021/12/18 09:44:24;;;;;;;13.98;8.05;;;3.00;92.40;;;;;;5045019;28;20604;-79
2021/12/18 09:46:50;;;;;;;16.75;7.78;;;3.10;92.70;;;;;;5044075;28;20017;-79
2021/12/18 09:49:16;;;;;;;14.30;7.20;;;3.20;92.20;;;;;;5043181;28;20024;-76
2021/12/18 09:51:42;;;;;;;25.50;14.05;;;3.20;92.60;;;;;;5044244;28;20239;-76
2021/12/18 09:54:08;;;;;;;13.40;6.70;;;3.30;91.90;;;;;;5047664;28;20314;-78
2021/12/18 09:56:34;;;;;;;11.15;5.80;;;3.20;90.70;;;;;;5049309;28;20654;-76
2021/12/18 09:59:00;;;;;;;12.02;6.57;;;3.10;89.10;;;;;;5048797;28;20032;-78
2021/12/18 10:01:28;;;;;;;9.80;4.45;;;3.00;90.60;;;;;;5046964;28;20100;-77
2021/12/18 10:03:58;;;;;;;8.63;5.13;;;2.90;90.70;;;;;;5049238;28;20032;-79
2021/12/18 10:06:44;;;;;;;9.23;4.60;;;4.30;91.90;;;;;;5062848;28;20077;-82
2021/12/18 10:09:18;;;;;;;10.10;5.22;;;3.00;91.20;;;;;;5059464;28;20072;-77
2021/12/18 10:11:47;;;;;;;14.50;7.65;;;3.00;90.90;;;;;;5058290;28;20116;-78
2021/12/18 10:14:14;;;;;;;13.38;7.82;;;3.10;90.80;;;;;;5059244;28;20066;-78
2021/12/18 10:16:58;;;;;;;14.15;8.25;;;3.20;90.90;;;;;;5053567;28;20096;-78
2021/12/18 10:19:41;;;;;;;13.52;7.45;;;3.30;91.10;;;;;;5054631;28;20028;-80
2021/12/18 10:22:10;;;;;;;11.88;6.50;;;3.40;90.50;;;;;;5056746;28;20033;-75
2021/12/18 10:24:40;;;;;;;13.68;6.78;;;3.40;90.10;;;;;;5054114;28;20532;-80
2021/12/18 10:27:18;;;;;;;9.15;5.30;;;3.30;90.10;;;;;;5048477;28;20021;-76
2021/12/18 10:29:50;;;;;;;11.63;5.90;;;3.20;90.20;;;;;;5050808;28;20095;-77
2021/12/18 10:32:22;;;;;;;8.98;5.28;;;3.20;90.60;;;;;;5055850;28;20092;-77
2021/12/18 10:34:56;;;;;;;11.10;6.28;;;3.10;90.60;;;;;;5055971;28;20033;-77
2021/12/18 10:37:27;;;;;;;10.23;6.40;;;3.20;91.10;;;;;;5049896;28;20096;-76
2021/12/18 10:39:53;;;;;;;12.18;6.88;;;3.20;90.90;;;;;;5046491;28;20037;-78
2021/12/18 10:42:42;;;;;;;11.18;7.10;;;3.20;91.00;;;;;;5047518;28;20024;-79
2021/12/18 10:45:23;;;;;;;12.32;7.47;;;3.30;90.90;;;;;;5048138;28;20049;-76
2021/12/18 10:48:28;;;;;;;16.20;8.02;;;3.20;90.70;;;;;;5047328;28;20105;-80
2021/12/18 10:50:53;;;;;;;18.83;9.68;;;3.20;89.20;;;;;;5003011;28;20038;-78
2021/12/18 10:53:30;;;;;;;24.23;11.23;;;3.10;89.50;;;;;;5001585;28;20252;-78
2021/12/18 10:56:01;;;;;;;18.70;9.43;;;3.10;90.10;;;;;;5001634;28;20075;-77
2021/12/18 10:58:32;;;;;;;20.15;10.05;;;3.10;89.40;;;;;;5001768;28;20045;-76
2021/12/18 11:01:06;;;;;;;15.15;8.43;;;3.00;89.70;;;;;;5001818;28;20790;-79
2021/12/18 11:03:33;;;;;;;22.70;10.63;;;3.00;90.40;;;;;;5004926;28;20030;-76
2021/12/18 11:06:24;;;;;;;11.82;6.30;;;3.00;90.40;;;;;;4985451;28;20103;-77
2021/12/18 11:08:58;;;;;;;41.78;16.40;;;3.00;89.90;;;;;;5004152;28;20116;-77
2021/12/18 11:14:08;;;;;;;15.43;7.82;;;3.10;86.40;;;;;;5000845;28;20058;-79
2021/12/18 11:16:36;;;;;;;11.55;6.70;;;3.00;87.60;;;;;;5001853;28;20018;-75
2021/12/18 11:19:08;;;;;;;37.40;15.48;;;3.00;86.30;;;;;;5002579;28;20057;-77
2021/12/18 11:21:35;;;;;;;33.35;15.77;;;2.90;86.40;;;;;;5020424;28;20048;-76
2021/12/18 11:24:05;;;;;;;29.95;12.93;;;3.00;88.30;;;;;;5043734;28;20034;-76
2021/12/18 11:26:41;;;;;;;19.70;9.35;;;3.00;88.30;;;;;;5048425;28;20467;-76
2021/12/18 11:29:19;;;;;;;11.98;6.68;;;3.00;86.70;;;;;;5046236;28;20102;-77
2021/12/18 11:31:46;;;;;;;36.83;14.68;;;3.10;87.10;;;;;;5041543;28;20021;-78
2021/12/18 11:34:15;;;;;;;128.02;40.58;;;3.00;87.90;;;;;;5040150;28;20025;-79
2021/12/18 11:36:45;;;;;;;131.23;35.47;;;2.90;88.50;;;;;;5044441;28;20552;-77
2021/12/18 11:39:16;;;;;;;24.00;10.15;;;2.90;90.10;;;;;;5045273;28;20020;-75
2021/12/18 11:41:50;;;;;;;10.57;5.68;;;2.90;86.30;;;;;;5051594;28;20021;-76
2021/12/18 11:44:26;;;;;;;9.85;4.93;;;2.80;83.30;;;;;;5048607;28;20032;-76
2021/12/18 11:46:53;;;;;;;9.18;4.55;;;2.80;83.30;;;;;;5058440;28;20064;-80
2021/12/18 11:49:21;;;;;;;10.77;5.72;;;2.80;85.00;;;;;;5058166;28;20648;-77
2021/12/18 11:52:03;;;;;;;9.63;5.10;;;2.80;86.50;;;;;;5056492;28;20047;-77
2021/12/18 11:54:39;;;;;;;11.02;4.07;;;2.70;86.50;;;;;;5057299;28;20423;-77
2021/12/18 11:57:05;;;;;;;13.93;6.75;;;2.60;85.20;;;;;;5053080;28;20068;-76
2021/12/18 11:59:44;;;;;;;16.65;8.18;;;2.60;86.30;;;;;;5050579;28;20494;-76
2021/12/18 12:02:13;;;;;;;12.85;6.05;;;2.60;86.90;;;;;;5043200;28;20078;-80
2021/12/18 12:05:03;;;;;;;11.52;5.72;;;2.50;86.90;;;;;;5044769;28;20028;-78
2021/12/18 12:07:31;;;;;;;17.27;7.78;;;2.50;88.10;;;;;;5046174;28;20024;-77
2021/12/18 12:10:48;;;;;;;17.92;7.65;;;2.60;89.10;;;;;;5047726;28;20033;-78
2021/12/18 12:13:17;;;;;;;13.18;7.70;;;2.50;88.20;;;;;;5007248;28;20037;-77
2021/12/18 12:15:52;;;;;;;14.73;8.02;;;2.40;89.30;;;;;;5007810;28;20036;-75
2021/12/18 12:18:18;;;;;;;25.45;12.88;;;2.40;90.50;;;;;;5006477;28;20022;-77
2021/12/18 12:20:46;;;;;;;29.23;15.88;;;2.50;92.30;;;;;;5009577;28;20029;-76
2021/12/18 12:23:14;;;;;;;30.92;17.33;;;2.40;94.50;;;;;;5009798;28;20117;-76
2021/12/18 12:25:46;;;;;;;32.58;17.27;;;2.40;95.00;;;;;;5006448;28;20356;-81
2021/12/18 12:28:13;;;;;;;32.30;16.25;;;2.30;95.70;;;;;;5005654;28;20049;-76
2021/12/18 12:30:45;;;;;;;32.03;17.02;;;2.30;95.70;;;;;;5005037;28;20034;-76
2021/12/18 12:33:22;;;;;;;31.88;16.83;;;2.30;96.00;;;;;;5006345;28;20033;-78
2021/12/18 12:36:09;;;;;;;26.35;14.88;;;2.20;96.10;;;;;;5008064;28;20049;-78
2021/12/18 12:38:38;;;;;;;25.40;13.93;;;2.20;96.10;;;;;;5006951;28;20029;-75
2021/12/18 12:41:36;;;;;;;26.35;14.25;;;2.10;96.20;;;;;;5004698;28;20073;-77
2021/12/18 12:44:14;;;;;;;27.27;13.35;;;2.10;96.40;;;;;;5001700;28;20013;-78
2021/12/18 12:46:40;;;;;;;23.83;12.23;;;2.10;96.20;;;;;;5003438;28;20038;-76
2021/12/18 12:49:15;;;;;;;25.58;14.10;;;2.10;95.60;;;;;;5028858;28;20031;-78
2021/12/18 12:52:04;;;;;;;30.55;14.50;;;2.10;95.90;;;;;;5043023;28;20040;-78
2021/12/18 12:55:13;;;;;;;27.60;14.48;;;2.10;95.30;;;;;;5045672;28;20033;-79
2021/12/18 12:57:44;;;;;;;27.92;13.98;;;2.00;95.70;;;;;;5007011;28;20044;-77
2021/12/18 13:00:14;;;;;;;33.50;16.10;;;2.00;95.90;;;;;;5006699;28;20101;-80
2021/12/18 13:02:56;;;;;;;31.48;15.55;;;2.00;95.70;;;;;;5010167;28;20049;-79
2021/12/18 13:05:23;;;;;;;34.75;16.55;;;2.00;95.80;;;;;;4994753;28;20288;-81
2021/12/18 13:07:53;;;;;;;39.45;18.27;;;2.10;95.90;;;;;;5013375;28;20041;-77
2021/12/18 13:10:36;;;;;;;32.85;16.92;;;2.10;95.90;;;;;;5016636;28;20015;-78
2021/12/18 13:13:09;;;;;;;33.17;17.13;;;2.10;95.70;;;;;;4993027;28;20226;-77
2021/12/18 13:15:47;;;;;;;36.15;16.85;;;2.20;95.70;;;;;;5007805;28;20041;-78
2021/12/18 13:18:13;;;;;;;41.67;17.50;;;2.20;95.10;;;;;;5009504;28;20029;-79
2021/12/18 13:21:02;;;;;;;36.85;17.48;;;2.20;95.20;;;;;;4996489;28;20030;-78
2021/12/18 13:23:55;;;;;;;30.20;16.15;;;2.20;95.10;;;;;;5009288;28;20038;-78
2021/12/18 13:26:27;;;;;;;29.58;15.73;;;2.20;95.30;;;;;;5006967;28;20598;-76
2021/12/18 13:29:12;;;;;;;29.38;14.93;;;2.20;95.20;;;;;;5007036;28;20053;-77
2021/12/18 13:31:49;;;;;;;38.08;15.77;;;2.20;95.10;;;;;;5012415;28;20014;-81
2021/12/18 13:34:31;;;;;;;46.88;21.08;;;2.10;95.20;;;;;;5029975;28;20060;-78
2021/12/18 13:37:10;;;;;;;43.00;18.60;;;2.10;95.50;;;;;;5052690;28;20483;-77
2021/12/18 13:39:46;;;;;;;33.83;16.10;;;2.00;95.50;;;;;;5051199;28;20021;-76
2021/12/18 13:42:12;;;;;;;38.13;17.50;;;2.00;95.80;;;;;;5056809;28;20071;-81